Time;durP1;ratioP1;P1;durP2;ratioP2;P2;SDS_P1;SDS_P2;PMS_P1;PMS_P2;Temp;Humidity;BMP_temperature;BMP_pressure;BME280_temperature;BME280_humidity;BME280_pressure;Samples;Min_cycle;Max_cycle;Signal;HPM_P1;HPM_P2
2022/12/20 00:01:23;;;;;;;12.77;8.80;;;;;;;0.04;nan;96882.28;5083370;28;20244;-68
2022/12/20 00:03:50;;;;;;;13.23;8.77;;;;;;;-0.01;nan;96895.50;5081896;28;20202;-68
2022/12/20 00:06:18;;;;;;;19.63;9.53;;;;;;;0.02;nan;96883.88;5082969;28;20300;-65
2022/12/20 00:08:45;;;;;;;12.87;9.70;;;;;;;0.03;nan;96898.06;5082302;28;20313;-68
2022/12/20 00:11:14;;;;;;;12.30;8.23;;;;;;;0.04;nan;96902.28;5083357;28;20213;-68
2022/12/20 00:13:40;;;;;;;11.00;8.50;;;;;;;0.06;nan;96895.69;5081747;28;20362;-64
2022/12/20 00:16:09;;;;;;;12.97;7.93;;;;;;;0.10;nan;96892.50;5082225;28;20750;-68
2022/12/20 00:18:37;;;;;;;13.30;7.73;;;;;;;0.10;nan;96885.00;5081759;28;20208;-63
2022/12/20 00:21:05;;;;;;;11.60;8.30;;;;;;;0.09;nan;96891.66;5082995;28;20204;-65
2022/12/20 00:23:32;;;;;;;16.40;9.37;;;;;;;-0.03;nan;96907.06;5082428;28;20205;-64
2022/12/20 00:26:04;;;;;;;12.37;8.20;;;;;;;0.04;nan;96897.28;5082507;28;20290;-68
2022/12/20 00:28:33;;;;;;;13.47;8.87;;;;;;;-0.03;nan;96892.09;5081973;28;20282;-69
2022/12/20 00:31:00;;;;;;;13.80;9.33;;;;;;;0.02;nan;96893.88;5083076;28;20708;-66
2022/12/20 00:33:28;;;;;;;14.80;8.53;;;;;;;-0.06;nan;96901.97;5082429;28;20305;-66
2022/12/20 00:35:56;;;;;;;14.60;9.57;;;;;;;0.02;nan;96893.88;5082694;28;20261;-66
2022/12/20 00:38:23;;;;;;;13.97;8.43;;;;;;;-0.17;nan;96885.72;5081788;28;20275;-68
2022/12/20 00:40:59;;;;;;;14.53;8.60;;;;;;;-0.26;nan;96847.91;5084405;28;20282;-68
2022/12/20 00:43:26;;;;;;;11.83;7.73;;;;;;;-0.02;nan;96893.78;5083622;28;20196;-69
2022/12/20 00:45:54;;;;;;;12.50;7.83;;;;;;;-0.06;nan;96884.47;5082176;28;20201;-68
2022/12/20 00:48:21;;;;;;;10.73;7.63;;;;;;;-0.16;nan;96904.91;5082034;28;20299;-69
2022/12/20 00:50:48;;;;;;;9.60;6.80;;;;;;;-0.16;nan;96894.91;5082785;28;20314;-69
2022/12/20 00:53:14;;;;;;;12.23;8.17;;;;;;;-0.09;nan;96891.84;5082249;28;20236;-64
2022/12/20 00:55:42;;;;;;;10.27;6.40;;;;;;;-0.17;nan;96885.72;5082651;28;20233;-67
2022/12/20 00:58:08;;;;;;;10.37;6.00;;;;;;;-0.12;nan;96889.22;5081392;28;20698;-65
2022/12/20 01:00:35;;;;;;;13.77;7.77;;;;;;;-0.12;nan;96888.38;5082260;28;20266;-66
2022/12/20 01:03:04;;;;;;;12.33;7.47;;;;;;;-0.04;nan;96889.53;5081897;28;20675;-68
2022/12/20 01:05:31;;;;;;;10.67;7.93;;;;;;;-0.04;nan;96892.88;5081944;28;20198;-70
2022/12/20 01:07:57;;;;;;;7.80;7.00;;;;;;;-0.05;nan;96893.66;5082196;28;20595;-68
2022/12/20 01:10:24;;;;;;;12.73;7.80;;;;;;;-0.09;nan;96876.84;5081921;28;20206;-67
2022/12/20 01:12:51;;;;;;;12.50;6.77;;;;;;;-0.08;nan;96893.56;5081822;28;20206;-64
2022/12/20 01:15:18;;;;;;;10.13;7.07;;;;;;;-0.08;nan;96877.72;5081972;28;20237;-66
2022/12/20 01:17:45;;;;;;;9.53;5.93;;;;;;;-0.14;nan;96873.34;5083963;28;20205;-67
2022/12/20 01:20:13;;;;;;;7.07;5.77;;;;;;;-0.05;nan;96880.31;5086988;28;20274;-66
2022/12/20 01:22:40;;;;;;;6.87;6.00;;;;;;;-0.20;nan;96878.09;5083775;28;20201;-64
2022/12/20 01:25:07;;;;;;;7.70;4.97;;;;;;;-0.18;nan;96871.50;5081591;28;20205;-67
2022/12/20 01:27:34;;;;;;;9.70;6.73;;;;;;;-0.22;nan;96868.84;5081510;28;20313;-68
2022/12/20 01:30:01;;;;;;;8.40;5.83;;;;;;;-0.21;nan;96863.91;5080928;28;20205;-69
2022/12/20 01:32:27;;;;;;;9.13;7.17;;;;;;;-0.15;nan;96863.28;5080509;28;20691;-67
2022/12/20 01:34:54;;;;;;;8.33;6.80;;;;;;;-0.20;nan;96860.59;5081551;28;20305;-65
2022/12/20 01:37:22;;;;;;;9.37;5.73;;;;;;;-0.21;nan;96861.41;5081111;28;20205;-66
2022/12/20 01:39:49;;;;;;;12.67;6.63;;;;;;;-0.32;nan;96836.84;5082256;28;20283;-63
2022/12/20 01:42:16;;;;;;;9.70;6.80;;;;;;;-0.19;nan;96849.81;5083162;28;20201;-67
2022/12/20 01:45:07;;;;;;;13.27;6.83;;;;;;;-0.30;nan;96847.75;5081472;28;20821;-65
2022/12/20 01:47:36;;;;;;;6.67;5.77;;;;;;;-0.31;nan;96849.38;5076958;28;20358;-67
2022/12/20 01:50:05;;;;;;;9.27;6.93;;;;;;;-0.32;nan;96847.69;5081209;28;20201;-67
2022/12/20 01:52:37;;;;;;;11.40;7.43;;;;;;;-0.29;nan;96847.81;5081578;28;20220;-66
2022/12/20 01:55:09;;;;;;;8.40;5.47;;;;;;;-0.32;nan;96842.69;5081528;28;20210;-67
2022/12/20 01:57:42;;;;;;;9.10;6.27;;;;;;;-0.32;nan;96830.19;5081465;28;20206;-65
2022/12/20 02:00:10;;;;;;;11.67;7.10;;;;;;;-0.26;nan;96842.91;5080875;28;20904;-63
2022/12/20 02:02:37;;;;;;;13.57;6.87;;;;;;;-0.28;nan;96847.00;5081000;28;20723;-68
2022/12/20 02:05:04;;;;;;;9.90;7.03;;;;;;;-0.30;nan;96846.09;5080871;28;20781;-64
2022/12/20 02:07:32;;;;;;;7.77;5.90;;;;;;;-0.24;nan;96841.28;5080001;28;20328;-68
2022/12/20 02:10:01;;;;;;;10.47;7.20;;;;;;;-0.23;nan;96832.16;5081421;28;20205;-64
2022/12/20 02:12:34;;;;;;;13.10;6.23;;;;;;;-0.23;nan;96838.00;5080409;28;20745;-69
2022/12/20 02:15:20;;;;;;;9.17;7.30;;;;;;;-0.31;nan;96826.06;5080636;28;20235;-66
2022/12/20 02:17:56;;;;;;;10.40;7.87;;;;;;;-0.27;nan;96841.22;5081023;28;20300;-68
2022/12/20 02:20:55;;;;;;;9.13;6.07;;;;;;;-0.36;nan;96830.88;5081482;28;20296;-68
2022/12/20 02:23:44;;;;;;;7.27;6.10;;;;;;;-0.39;nan;96836.59;5030155;28;20764;-65
2022/12/20 02:26:30;;;;;;;13.97;7.53;;;;;;;-0.40;nan;96834.03;5081230;28;20228;-69
2022/12/20 02:29:13;;;;;;;6.77;5.47;;;;;;;-0.46;nan;96828.81;5081673;28;20217;-66
2022/12/20 02:31:46;;;;;;;7.13;6.43;;;;;;;-0.49;nan;96833.69;5080747;28;20602;-69
2022/12/20 02:34:15;;;;;;;8.83;5.70;;;;;;;-0.51;nan;96826.19;5081103;28;20290;-69
2022/12/20 02:36:41;;;;;;;9.07;6.90;;;;;;;-0.56;nan;96836.78;5084568;28;21602;-66
2022/12/20 02:39:11;;;;;;;7.33;5.27;;;;;;;-0.53;nan;96837.75;5084275;28;20209;-67
2022/12/20 02:41:44;;;;;;;9.60;6.23;;;;;;;-0.56;nan;96827.66;5085988;28;20213;-68
2022/12/20 02:47:08;;;;;;;11.17;6.70;;;;;;;-0.63;nan;96822.34;5083160;28;20205;-62
2022/12/20 02:49:40;;;;;;;9.87;7.13;;;;;;;-0.56;nan;96829.28;5084557;28;20745;-69
2022/12/20 02:52:08;;;;;;;12.60;7.27;;;;;;;-0.58;nan;96829.22;5083960;28;20202;-68
2022/12/20 02:54:37;;;;;;;10.53;7.40;;;;;;;-0.56;nan;96819.31;5083761;28;20942;-65
2022/12/20 02:57:12;;;;;;;12.17;7.57;;;;;;;-0.56;nan;96826.78;5083980;28;20648;-65
2022/12/20 02:59:45;;;;;;;10.27;8.57;;;;;;;-0.50;nan;96824.53;5084380;28;21388;-67
2022/12/20 03:02:14;;;;;;;5.70;5.10;;;;;;;-0.48;nan;96816.28;5084137;28;20200;-67
2022/12/20 03:04:42;;;;;;;11.00;7.27;;;;;;;-0.59;nan;96816.69;5084043;28;20258;-66
2022/12/20 03:07:11;;;;;;;7.60;7.00;;;;;;;-0.60;nan;96805.00;5083517;28;20446;-68
2022/12/20 03:09:40;;;;;;;10.40;6.93;;;;;;;-0.63;nan;96802.38;5083772;28;20221;-65
2022/12/20 03:12:08;;;;;;;13.23;7.53;;;;;;;-0.62;nan;96811.56;5083377;28;20671;-69
2022/12/20 03:14:35;;;;;;;11.90;7.60;;;;;;;-0.61;nan;96811.63;5083771;28;20287;-68
2022/12/20 03:17:02;;;;;;;9.47;7.87;;;;;;;-0.63;nan;96807.38;5083369;28;20274;-65
2022/12/20 03:19:31;;;;;;;7.00;6.30;;;;;;;-0.66;nan;96804.75;5083267;28;20191;-70
2022/12/20 03:21:58;;;;;;;10.00;7.20;;;;;;;-0.71;nan;96807.94;5084129;28;20254;-71
2022/12/20 03:24:25;;;;;;;6.07;5.43;;;;;;;-0.69;nan;96803.00;5083033;28;20673;-70
2022/12/20 03:26:52;;;;;;;12.20;8.13;;;;;;;-0.84;nan;96805.78;5083296;28;20220;-69
2022/12/20 03:29:18;;;;;;;9.50;6.97;;;;;;;-0.88;nan;96806.47;5083617;28;20225;-64
2022/12/20 03:31:45;;;;;;;10.37;7.67;;;;;;;-0.82;nan;96803.34;5083939;28;20319;-64
2022/12/20 03:34:12;;;;;;;10.50;7.47;;;;;;;-0.93;nan;96780.47;5083798;28;20282;-67
2022/12/20 03:36:40;;;;;;;12.17;6.93;;;;;;;-0.82;nan;96809.19;5083725;28;20773;-67
2022/12/20 03:39:07;;;;;;;14.40;7.20;;;;;;;-0.85;nan;96804.06;5083485;28;20221;-65
2022/12/20 03:41:33;;;;;;;10.30;7.63;;;;;;;-0.84;nan;96800.78;5086963;28;20237;-66
2022/12/20 03:44:00;;;;;;;13.47;7.20;;;;;;;-1.00;nan;96801.00;5084602;28;20209;-67
2022/12/20 03:46:27;;;;;;;11.80;7.07;;;;;;;-0.99;nan;96800.19;5085355;28;20205;-65
2022/12/20 03:48:54;;;;;;;10.87;7.73;;;;;;;-1.01;nan;96796.81;5083378;28;21334;-67
2022/12/20 03:51:21;;;;;;;13.57;8.17;;;;;;;-0.99;nan;96797.69;5082528;28;20255;-65
2022/12/20 03:53:49;;;;;;;10.80;7.80;;;;;;;-1.03;nan;96793.41;5082522;28;20240;-64
2022/12/20 03:56:16;;;;;;;11.67;7.87;;;;;;;-1.00;nan;96796.03;5083490;28;20620;-67
2022/12/20 03:58:43;;;;;;;7.73;6.37;;;;;;;-1.04;nan;96805.03;5082934;28;20266;-67
2022/12/20 04:01:20;;;;;;;11.27;8.17;;;;;;;-1.14;nan;96802.09;5076519;28;20258;-62
2022/12/20 04:03:47;;;;;;;12.63;8.77;;;;;;;-1.15;nan;96800.41;5083090;28;20197;-67
2022/12/20 04:06:14;;;;;;;11.57;8.33;;;;;;;-1.22;nan;96801.78;5083056;28;20630;-67
2022/12/20 04:08:42;;;;;;;12.17;8.67;;;;;;;-1.15;nan;96806.25;5080306;28;20222;-62
2022/12/20 04:11:16;;;;;;;10.47;8.60;;;;;;;-1.12;nan;96798.88;5080549;28;20208;-65
2022/12/20 04:13:43;;;;;;;15.53;9.37;;;;;;;-1.22;nan;96794.31;5079496;28;20236;-65
2022/12/20 04:16:10;;;;;;;12.10;8.50;;;;;;;-1.25;nan;96801.69;5079947;28;20202;-65
2022/12/20 04:18:37;;;;;;;16.47;9.13;;;;;;;-1.23;nan;96794.25;5079896;28;20734;-66
2022/12/20 04:21:05;;;;;;;10.47;8.17;;;;;;;-1.26;nan;96794.16;5081013;28;20303;-66
2022/12/20 04:23:33;;;;;;;13.43;6.63;;;;;;;-1.31;nan;96795.59;5081638;28;20198;-65
2022/12/20 04:26:00;;;;;;;11.93;9.00;;;;;;;-1.24;nan;96797.56;5082788;28;20682;-68
2022/12/20 04:28:28;;;;;;;12.97;8.63;;;;;;;-1.29;nan;96789.03;5087959;28;20224;-64
2022/12/20 04:30:55;;;;;;;15.73;8.73;;;;;;;-1.17;nan;96790.34;5086645;28;20683;-63
2022/12/20 04:33:22;;;;;;;11.23;8.43;;;;;;;-1.20;nan;96784.38;5082914;28;20253;-64
2022/12/20 04:35:49;;;;;;;11.60;8.67;;;;;;;-1.19;nan;96781.09;5081662;28;20282;-67
2022/12/20 04:38:16;;;;;;;10.10;8.33;;;;;;;-1.24;nan;96790.06;5082201;28;20674;-68
2022/12/20 04:40:43;;;;;;;12.63;8.43;;;;;;;-1.27;nan;96782.47;5084336;28;20206;-69
2022/12/20 04:43:10;;;;;;;16.83;8.67;;;;;;;-1.27;nan;96789.94;5082884;28;20267;-67
2022/12/20 04:45:38;;;;;;;10.90;8.10;;;;;;;-1.35;nan;96777.16;5081852;28;20202;-64
2022/12/20 04:48:05;;;;;;;12.17;9.17;;;;;;;-1.23;nan;96780.13;5082714;28;20205;-67
2022/12/20 04:50:32;;;;;;;11.20;7.50;;;;;;;-1.33;nan;96783.06;5083019;28;20381;-66
2022/12/20 04:55:43;;;;;;;11.40;8.63;;;;;;;-1.27;nan;96787.47;5083016;28;20207;-64
2022/12/20 04:58:09;;;;;;;11.83;8.67;;;;;;;-1.25;nan;96780.88;5081212;28;20210;-66
2022/12/20 05:00:37;;;;;;;10.70;7.27;;;;;;;-1.30;nan;96782.34;5081602;28;20205;-66
2022/12/20 05:03:04;;;;;;;11.47;7.93;;;;;;;-1.37;nan;96768.78;5082002;28;20280;-66
2022/12/20 05:05:31;;;;;;;14.80;8.87;;;;;;;-1.35;nan;96781.31;5082518;28;20293;-67
2022/12/20 05:07:58;;;;;;;16.73;9.47;;;;;;;-1.39;nan;96773.69;5080754;28;20237;-67
2022/12/20 05:10:25;;;;;;;11.43;8.70;;;;;;;-1.37;nan;96782.09;5082275;28;20289;-66
2022/12/20 05:12:52;;;;;;;14.80;8.97;;;;;;;-1.39;nan;96773.69;5082699;28;20209;-64
2022/12/20 05:15:19;;;;;;;9.50;6.77;;;;;;;-1.34;nan;96791.34;5081512;28;20282;-68
2022/12/20 05:17:48;;;;;;;13.93;8.43;;;;;;;-1.35;nan;96783.81;5081495;28;20204;-68
2022/12/20 05:20:15;;;;;;;11.33;8.53;;;;;;;-1.45;nan;96777.59;5082172;28;20193;-61
2022/12/20 05:28:10;;;;;;;13.53;9.27;;;;;;;-1.54;nan;96778.09;5082437;28;20220;-68
2022/12/20 05:30:37;;;;;;;11.90;9.03;;;;;;;-1.49;nan;96776.63;5081858;28;20229;-66
2022/12/20 05:33:05;;;;;;;10.97;7.87;;;;;;;-1.45;nan;96785.91;5082697;28;20293;-64
2022/12/20 05:35:32;;;;;;;12.43;8.43;;;;;;;-1.47;nan;96785.00;5081229;28;20262;-67
2022/12/20 05:37:58;;;;;;;20.17;10.23;;;;;;;-1.46;nan;96784.22;5082257;28;20219;-65
2022/12/20 05:40:25;;;;;;;11.47;7.90;;;;;;;-1.41;nan;96777.78;5083202;28;20205;-64
2022/12/20 05:42:52;;;;;;;20.30;10.83;;;;;;;-1.32;nan;96788.91;5081707;28;20210;-67
2022/12/20 05:45:19;;;;;;;12.97;8.63;;;;;;;-1.37;nan;96787.09;5081734;28;20591;-62
2022/12/20 05:47:45;;;;;;;15.10;9.70;;;;;;;-1.33;nan;96789.69;5080298;28;20202;-67
2022/12/20 05:50:16;;;;;;;16.20;10.13;;;;;;;-1.35;nan;96778.81;5081029;28;20256;-64
2022/12/20 05:52:42;;;;;;;16.33;9.67;;;;;;;-1.38;nan;96777.91;5080821;28;20262;-67
2022/12/20 05:55:09;;;;;;;13.10;9.60;;;;;;;-1.17;nan;96792.00;5081618;28;20209;-67
2022/12/20 05:57:36;;;;;;;18.90;10.97;;;;;;;-1.17;nan;96794.50;5080554;28;20638;-67
2022/12/20 06:00:04;;;;;;;13.50;8.87;;;;;;;-1.22;nan;96790.97;5081083;28;20695;-67
2022/12/20 06:02:31;;;;;;;13.53;9.67;;;;;;;-1.26;nan;96795.00;5080332;28;20647;-66
2022/12/20 06:04:58;;;;;;;14.93;9.93;;;;;;;-1.25;nan;96799.19;5081432;28;20208;-68
2022/12/20 06:07:27;;;;;;;17.87;10.07;;;;;;;-1.19;nan;96791.94;5082188;28;20220;-64
2022/12/20 06:09:54;;;;;;;14.80;9.83;;;;;;;-1.11;nan;96794.75;5083675;28;20221;-68
2022/12/20 06:12:21;;;;;;;15.80;10.00;;;;;;;-1.03;nan;96795.91;5085775;28;20283;-66
2022/12/20 06:14:48;;;;;;;15.43;9.60;;;;;;;-1.10;nan;96791.44;5084736;28;20239;-65
2022/12/20 06:17:15;;;;;;;17.87;10.30;;;;;;;-0.98;nan;96793.56;5084435;28;20206;-68
2022/12/20 06:19:42;;;;;;;18.93;10.33;;;;;;;-0.96;nan;96800.31;5084349;28;21219;-65
2022/12/20 06:22:09;;;;;;;15.70;9.60;;;;;;;-1.02;nan;96800.09;5085525;28;20201;-66
2022/12/20 06:24:38;;;;;;;15.93;9.73;;;;;;;-1.06;nan;96795.78;5084588;28;20190;-65
2022/12/20 06:27:06;;;;;;;17.67;10.33;;;;;;;-1.06;nan;96803.25;5084791;28;20208;-64
2022/12/20 06:29:33;;;;;;;17.20;10.93;;;;;;;-1.10;nan;96806.41;5084618;28;20809;-65
2022/12/20 06:32:00;;;;;;;19.17;9.53;;;;;;;-1.10;nan;96793.94;5085343;28;20201;-66
2022/12/20 06:34:26;;;;;;;22.47;10.20;;;;;;;-0.94;nan;96796.22;5084659;28;20306;-65
2022/12/20 06:36:53;;;;;;;15.00;9.80;;;;;;;-0.90;nan;96795.56;5084141;28;20202;-67
2022/12/20 06:39:20;;;;;;;17.93;10.40;;;;;;;-0.84;nan;96790.81;5085461;28;20302;-67
2022/12/20 06:41:48;;;;;;;15.53;9.73;;;;;;;-0.76;nan;96793.59;5087018;28;20209;-64
2022/12/20 06:44:15;;;;;;;21.07;10.27;;;;;;;-0.73;nan;96789.53;5083800;28;20787;-63
2022/12/20 06:46:41;;;;;;;25.10;9.90;;;;;;;-0.67;nan;96783.94;5084825;28;20197;-66
2022/12/20 06:49:08;;;;;;;15.50;10.07;;;;;;;-0.66;nan;96784.78;5085285;28;20225;-67
2022/12/20 06:51:35;;;;;;;15.03;8.83;;;;;;;-0.54;nan;96775.25;5084425;28;20661;-68
2022/12/20 06:54:01;;;;;;;16.33;9.57;;;;;;;-0.54;nan;96771.13;5084317;28;20233;-65
2022/12/20 06:56:28;;;;;;;15.23;9.67;;;;;;;-0.46;nan;96772.22;5084840;28;20294;-65
2022/12/20 06:58:56;;;;;;;12.27;8.87;;;;;;;-0.39;nan;96783.28;5085435;28;21188;-67
2022/12/20 07:01:23;;;;;;;14.75;8.23;;;;;;;-0.47;nan;96773.03;5085524;28;20290;-67
2022/12/20 07:03:50;;;;;;;13.33;7.73;;;;;;;-0.59;nan;96774.25;5084985;28;20205;-64
2022/12/20 07:06:16;;;;;;;9.23;8.03;;;;;;;-0.68;nan;96763.13;5083676;28;20259;-68
2022/12/20 07:08:43;;;;;;;15.17;8.57;;;;;;;-0.52;nan;96771.19;5083711;28;20206;-65
2022/12/20 07:11:10;;;;;;;15.33;9.03;;;;;;;-0.35;nan;96765.13;5084500;28;20224;-63
2022/12/20 07:13:37;;;;;;;25.23;10.80;;;;;;;-0.14;nan;96755.88;5084114;28;20286;-68
2022/12/20 07:16:06;;;;;;;14.77;9.67;;;;;;;0.34;nan;96768.34;5085061;28;20748;-63
2022/12/20 07:18:34;;;;;;;17.10;10.40;;;;;;;0.75;nan;96758.78;5084682;28;20267;-68
2022/12/20 07:21:01;;;;;;;17.60;10.93;;;;;;;1.35;nan;96768.16;5082696;28;20723;-68
2022/12/20 07:23:28;;;;;;;17.50;10.97;;;;;;;1.84;nan;96764.53;5084933;28;20197;-67
2022/12/20 07:25:55;;;;;;;16.70;10.57;;;;;;;2.00;nan;96756.59;5083838;28;20360;-67
2022/12/20 07:28:22;;;;;;;17.30;10.13;;;;;;;2.16;nan;96760.38;5082941;28;20248;-68
2022/12/20 07:30:49;;;;;;;17.17;11.00;;;;;;;2.70;nan;96765.94;5083562;28;20230;-68
2022/12/20 07:33:17;;;;;;;18.17;10.23;;;;;;;3.23;nan;96760.41;5084057;28;20710;-62
2022/12/20 07:35:45;;;;;;;16.97;10.87;;;;;;;3.25;nan;96759.63;5083143;28;20206;-65
2022/12/20 07:38:12;;;;;;;18.30;10.60;;;;;;;2.93;nan;96758.09;5083789;28;20215;-65
2022/12/20 07:40:41;;;;;;;14.60;9.73;;;;;;;3.61;nan;96756.19;5084928;28;20255;-65
2022/12/20 07:43:08;;;;;;;14.70;10.13;;;;;;;4.68;nan;96759.03;5087110;28;20197;-66
2022/12/20 07:45:35;;;;;;;16.77;9.95;;;;;;;4.28;nan;96760.00;5084429;28;20209;-65
2022/12/20 07:48:01;;;;;;;17.90;10.00;;;;;;;3.72;nan;96757.25;5083210;28;20255;-63
2022/12/20 07:50:30;;;;;;;17.23;10.07;;;;;;;3.78;nan;96749.84;5083966;28;20787;-66
2022/12/20 07:52:57;;;;;;;20.25;9.80;;;;;;;3.94;nan;96744.31;5083378;28;20302;-65
2022/12/20 07:55:24;;;;;;;16.30;9.37;;;;;;;3.96;nan;96747.66;5084008;28;20268;-69
2022/12/20 07:57:55;;;;;;;12.73;8.87;;;;;;;3.78;nan;96757.38;5083279;28;20675;-65
2022/12/20 08:00:22;;;;;;;21.60;9.97;;;;;;;2.89;nan;96749.63;5083398;28;20198;-65
2022/12/20 08:02:55;;;;;;;15.70;9.57;;;;;;;2.95;nan;96753.94;5083036;28;20340;-66
2022/12/20 08:05:23;;;;;;;14.40;9.17;;;;;;;3.15;nan;96751.88;5083436;28;20294;-66
2022/12/20 08:07:54;;;;;;;13.10;9.33;;;;;;;3.00;nan;96747.34;5083183;28;20263;-67
2022/12/20 08:10:21;;;;;;;15.73;8.07;;;;;;;2.83;nan;96746.13;5083984;28;20275;-66
2022/12/20 08:12:49;;;;;;;13.90;8.77;;;;;;;2.70;nan;96750.88;5083544;28;20203;-68
2022/12/20 08:15:16;;;;;;;14.25;9.07;;;;;;;2.67;nan;96748.28;5082304;28;20319;-68
2022/12/20 08:17:43;;;;;;;14.32;9.90;;;;;;;2.66;nan;96741.56;5083348;28;20209;-68
2022/12/20 08:20:10;;;;;;;13.17;9.17;;;;;;;2.45;nan;96751.09;5082667;28;20587;-65
2022/12/20 08:22:37;;;;;;;15.00;9.97;;;;;;;2.28;nan;96742.25;5083069;28;20659;-66
2022/12/20 08:25:06;;;;;;;14.33;8.90;;;;;;;2.00;nan;96734.03;5082335;28;20209;-68
2022/12/20 08:27:33;;;;;;;15.63;9.53;;;;;;;2.08;nan;96730.88;5082067;28;21373;-61
2022/12/20 08:30:00;;;;;;;11.27;7.83;;;;;;;2.26;nan;96734.69;5082528;28;20607;-69
2022/12/20 08:32:28;;;;;;;11.13;8.10;;;;;;;2.38;nan;96726.66;5081643;28;20213;-62
2022/12/20 08:34:55;;;;;;;13.00;8.33;;;;;;;2.47;nan;96734.41;5082776;28;20230;-66
2022/12/20 08:37:22;;;;;;;14.70;8.13;;;;;;;2.80;nan;96716.75;5083838;28;20227;-69
2022/12/20 08:39:48;;;;;;;10.93;8.10;;;;;;;3.01;nan;96724.78;5082400;28;20290;-69
2022/12/20 08:42:16;;;;;;;12.00;9.27;;;;;;;3.31;nan;96732.13;5084284;28;20646;-69
2022/12/20 08:44:43;;;;;;;10.67;6.70;;;;;;;3.12;nan;96725.03;5082109;28;20298;-62
2022/12/20 08:47:10;;;;;;;13.13;7.40;;;;;;;2.95;nan;96727.16;5082619;28;20268;-68
2022/12/20 08:49:37;;;;;;;13.30;8.57;;;;;;;3.35;nan;96721.31;5081817;28;20210;-66
2022/12/20 08:52:04;;;;;;;10.90;7.93;;;;;;;3.36;nan;96723.03;5081783;28;20206;-68
2022/12/20 08:54:30;;;;;;;9.70;8.33;;;;;;;3.34;nan;96726.31;5081474;28;20205;-66
2022/12/20 08:56:57;;;;;;;9.33;7.73;;;;;;;3.42;nan;96722.31;5081993;28;20229;-67
2022/12/20 08:59:25;;;;;;;9.93;7.95;;;;;;;3.74;nan;96725.44;5081919;28;20811;-66
2022/12/20 09:01:53;;;;;;;9.60;7.43;;;;;;;3.83;nan;96724.78;5081928;28;20298;-64
2022/12/20 09:04:20;;;;;;;15.73;7.93;;;;;;;3.90;nan;96707.31;5081409;28;20327;-64
2022/12/20 09:06:47;;;;;;;17.40;7.55;;;;;;;4.06;nan;96714.31;5082258;28;20197;-69
2022/12/20 09:09:15;;;;;;;10.20;7.50;;;;;;;4.27;nan;96706.28;5082709;28;20302;-68
2022/12/20 09:11:42;;;;;;;11.85;8.23;;;;;;;4.33;nan;96700.53;5081397;28;20335;-68
2022/12/20 09:14:09;;;;;;;16.00;7.57;;;;;;;4.55;nan;96705.09;5080810;28;20240;-67
2022/12/20 09:16:37;;;;;;;15.40;7.57;;;;;;;4.10;nan;96700.97;5081839;28;20229;-68
2022/12/20 09:19:05;;;;;;;11.88;7.35;;;;;;;3.84;nan;96692.13;5081100;28;20210;-66
2022/12/20 09:21:32;;;;;;;12.80;7.72;;;;;;;3.91;nan;96691.41;5083049;28;20310;-68
2022/12/20 09:23:58;;;;;;;13.65;8.85;;;;;;;4.30;nan;96692.91;5080618;28;20209;-68
2022/12/20 09:26:25;;;;;;;10.97;9.07;;;;;;;4.87;nan;96687.09;5039444;28;20213;-66
2022/12/20 09:28:52;;;;;;;14.75;7.60;;;;;;;4.72;nan;96678.47;5054633;28;20212;-67
2022/12/20 09:31:21;;;;;;;13.18;7.80;;;;;;;4.33;nan;96670.31;5053384;28;20226;-66
2022/12/20 09:33:50;;;;;;;9.32;7.70;;;;;;;3.95;nan;96670.53;5053097;28;20229;-72
2022/12/20 09:36:18;;;;;;;13.95;7.82;;;;;;;3.80;nan;96675.28;5053725;28;20580;-63
2022/12/20 09:38:46;;;;;;;14.93;8.18;;;;;;;3.88;nan;96667.88;5054419;28;21624;-67
2022/12/20 09:41:22;;;;;;;13.68;8.48;;;;;;;3.75;nan;96666.78;5055936;28;20235;-68
2022/12/20 09:43:49;;;;;;;13.93;9.13;;;;;;;3.71;nan;96660.84;5056367;28;20209;-62
2022/12/20 09:46:17;;;;;;;10.32;7.63;;;;;;;4.01;nan;96663.06;5058496;28;20212;-61
2022/12/20 09:48:45;;;;;;;21.17;8.68;;;;;;;4.50;nan;96656.31;5057144;28;20206;-59
2022/12/20 09:51:29;;;;;;;23.73;9.15;;;;;;;4.92;nan;96642.69;5060023;28;20603;-61
2022/12/20 09:54:08;;;;;;;17.85;9.27;;;;;;;5.67;nan;96635.19;5059986;28;20205;-64
2022/12/20 09:56:38;;;;;;;30.08;9.30;;;;;;;6.25;nan;96639.94;5056793;28;20301;-69
2022/12/20 09:59:06;;;;;;;10.60;8.00;;;;;;;6.53;nan;96630.91;5058675;28;20197;-70
2022/12/20 10:01:35;;;;;;;13.80;8.43;;;;;;;5.70;nan;96629.31;5059672;28;20205;-60
2022/12/20 10:04:06;;;;;;;14.40;9.10;;;;;;;5.13;nan;96605.16;5059227;28;21750;-62
2022/12/20 10:06:48;;;;;;;10.05;8.57;;;;;;;5.35;nan;96617.16;5057955;28;20562;-57
2022/12/20 10:09:40;;;;;;;10.93;8.05;;;;;;;5.73;nan;96604.09;5058330;28;20639;-60
2022/12/20 10:12:20;;;;;;;13.20;9.73;;;;;;;5.82;nan;96601.69;5061077;28;20231;-60
2022/12/20 10:15:03;;;;;;;14.35;9.57;;;;;;;5.97;nan;96589.22;5060290;28;20244;-57
2022/12/20 10:17:45;;;;;;;18.65;9.90;;;;;;;6.26;nan;96578.53;5060664;28;20214;-61
2022/12/20 10:20:28;;;;;;;24.92;12.80;;;;;;;7.02;nan;96573.91;5061960;28;20622;-59
2022/12/20 10:23:02;;;;;;;11.70;7.90;;;;;;;6.66;nan;96562.81;5062345;28;20726;-61
2022/12/20 10:25:31;;;;;;;9.02;7.82;;;;;;;5.96;nan;96556.41;5058488;28;20683;-61
2022/12/20 10:28:00;;;;;;;27.58;16.58;;;;;;;5.89;nan;96557.22;5057287;28;20202;-62
2022/12/20 10:30:28;;;;;;;11.98;7.85;;;;;;;5.88;nan;96548.75;5058954;28;20233;-60
2022/12/20 10:32:58;;;;;;;11.93;8.70;;;;;;;5.42;nan;96540.78;5060553;28;20202;-64
2022/12/20 10:35:27;;;;;;;11.27;7.88;;;;;;;5.14;nan;96546.38;5060908;28;20210;-62
2022/12/20 10:38:00;;;;;;;10.20;7.85;;;;;;;4.99;nan;96544.50;5059541;28;20213;-61
2022/12/20 10:40:29;;;;;;;12.10;7.35;;;;;;;5.22;nan;96536.34;5058633;28;20228;-60
2022/12/20 10:42:57;;;;;;;9.25;7.97;;;;;;;5.36;nan;96527.25;5055340;28;22212;-61
2022/12/20 10:45:36;;;;;;;12.30;8.45;;;;;;;5.25;nan;96523.78;5057329;28;20198;-59
2022/12/20 10:48:23;;;;;;;10.68;8.18;;;;;;;5.25;nan;96517.06;5055337;28;20200;-61
2022/12/20 10:50:56;;;;;;;10.65;7.72;;;;;;;5.54;nan;96496.31;5055409;28;20244;-61
2022/12/20 10:53:26;;;;;;;9.15;7.03;;;;;;;5.15;nan;96507.72;5054377;28;20205;-61
2022/12/20 10:55:54;;;;;;;9.93;7.53;;;;;;;4.77;nan;96505.63;5053799;28;20201;-60
2022/12/20 10:58:34;;;;;;;8.73;7.15;;;;;;;4.24;nan;96481.44;5054005;28;20204;-60
2022/12/20 11:01:07;;;;;;;14.57;7.90;;;;;;;4.32;nan;96505.03;5055004;28;20202;-60
2022/12/20 11:03:34;;;;;;;9.20;8.05;;;;;;;4.43;nan;96503.53;5055542;28;20205;-60
2022/12/20 11:06:03;;;;;;;8.68;7.80;;;;;;;4.30;nan;96501.66;5054401;28;20205;-62
2022/12/20 11:08:32;;;;;;;8.82;6.95;;;;;;;4.36;nan;96487.47;5054338;28;20760;-61
2022/12/20 11:11:15;;;;;;;10.80;7.85;;;;;;;4.89;nan;96497.38;5054167;28;20244;-61
2022/12/20 11:13:43;;;;;;;10.93;7.47;;;;;;;4.90;nan;96490.66;5055526;28;20245;-61
2022/12/20 11:16:28;;;;;;;11.75;7.38;;;;;;;4.79;nan;96478.78;5057702;28;20204;-61
2022/12/20 11:19:13;;;;;;;10.93;7.72;;;;;;;4.99;nan;96480.66;5055650;28;20222;-62
2022/12/20 11:21:58;;;;;;;13.55;7.30;;;;;;;5.16;nan;96475.81;5057972;28;20205;-62
2022/12/20 11:24:34;;;;;;;14.52;7.43;;;;;;;5.33;nan;96462.53;5057468;28;20683;-61
2022/12/20 11:27:15;;;;;;;10.07;7.90;;;;;;;5.54;nan;96466.06;5056048;28;20201;-62
2022/12/20 11:30:04;;;;;;;9.43;8.32;;;;;;;5.73;nan;96463.69;5053595;28;20209;-61
2022/12/20 11:32:51;;;;;;;16.90;7.50;;;;;;;5.94;nan;96455.47;5055372;28;20317;-63
2022/12/20 11:35:23;;;;;;;13.05;8.10;;;;;;;6.12;nan;96459.81;5056199;28;20216;-65
2022/12/20 11:37:56;;;;;;;10.85;7.18;;;;;;;6.23;nan;96455.66;5055039;28;20300;-65
2022/12/20 11:40:32;;;;;;;12.95;7.85;;;;;;;6.21;nan;96456.47;5055044;28;20208;-66
2022/12/20 11:43:29;;;;;;;7.68;6.78;;;;;;;6.25;nan;96450.59;5055449;28;20220;-65
2022/12/20 11:46:15;;;;;;;8.07;6.32;;;;;;;5.97;nan;96442.88;5055796;28;20205;-67
2022/12/20 11:48:53;;;;;;;9.27;6.45;;;;;;;5.41;nan;96440.78;5057817;28;21206;-66
2022/12/20 11:51:23;;;;;;;8.90;6.03;;;;;;;5.16;nan;96440.53;5056080;28;20221;-66
2022/12/20 11:53:57;;;;;;;11.10;6.38;;;;;;;4.90;nan;96440.28;5055462;28;20206;-66
2022/12/20 11:56:31;;;;;;;9.95;6.78;;;;;;;4.69;nan;96435.84;5054976;28;20212;-65
2022/12/20 11:59:02;;;;;;;8.75;6.72;;;;;;;4.64;nan;96437.47;5052570;28;20221;-64
2022/12/20 12:01:34;;;;;;;8.67;6.00;;;;;;;4.56;nan;96439.06;5056351;28;20209;-65
2022/12/20 12:04:11;;;;;;;7.68;6.20;;;;;;;4.66;nan;96421.56;5055204;28;21234;-66
2022/12/20 12:06:43;;;;;;;10.38;7.15;;;;;;;4.87;nan;96432.69;5054030;28;20212;-65
2022/12/20 12:09:20;;;;;;;8.73;6.50;;;;;;;5.09;nan;96424.50;5056766;28;20206;-65